createdAt,value
2024-02-13T00:03:23.444Z,57.22
2024-02-13T00:08:36.304Z,55.22
2024-02-13T00:13:47.524Z,55.01
2024-02-13T00:18:49.598Z,54.11
2024-02-13T00:23:51.527Z,53.33
2024-02-13T00:28:53.367Z,53.30
2024-02-13T00:33:55.891Z,54.82
2024-02-13T00:38:58.201Z,54.84
2024-02-13T00:43:59.822Z,55.36
2024-02-13T00:49:01.815Z,56.96
2024-02-13T00:54:03.362Z,57.08
2024-02-13T00:59:05.035Z,58.26
2024-02-13T01:04:07.648Z,57.76
2024-02-13T01:09:09.372Z,59.03
2024-02-13T01:14:11.082Z,58.41
2024-02-13T01:19:13.948Z,58.65
2024-02-13T01:24:19.111Z,58.81
2024-02-13T01:29:21.142Z,58.43
2024-02-13T01:34:22.916Z,58.23
2024-02-13T01:39:25.301Z,58.18
2024-02-13T01:44:29.563Z,58.00
2024-02-13T01:49:31.356Z,61.11
2024-02-13T01:54:32.978Z,60.29
2024-02-13T01:59:39.946Z,61.94
2024-02-13T02:04:42.291Z,61.45
2024-02-13T02:09:44.629Z,61.93
2024-02-13T02:14:46.220Z,61.65
2024-02-13T02:19:48.016Z,61.11
2024-02-13T02:24:49.581Z,61.65
2024-02-13T02:29:51.288Z,61.35
2024-02-13T02:34:53.120Z,61.11
2024-02-13T02:39:55.032Z,60.88
2024-02-13T02:44:56.582Z,60.69
2024-02-13T02:49:58.104Z,62.49
2024-02-13T02:54:59.875Z,62.60
2024-02-13T03:00:08.053Z,61.49
2024-02-13T03:05:12.529Z,62.31
2024-02-13T03:10:14.374Z,62.02
2024-02-13T03:15:15.993Z,61.90
2024-02-13T03:20:17.784Z,61.61
2024-02-13T03:25:20.115Z,61.49
2024-02-13T03:30:21.685Z,61.33
2024-02-13T03:35:23.294Z,60.26
2024-02-13T03:40:24.815Z,61.34
2024-02-13T03:45:26.380Z,59.78
2024-02-13T03:50:28.092Z,60.66
2024-02-13T03:55:29.736Z,61.29
2024-02-13T04:00:31.290Z,61.06
2024-02-13T04:05:38.567Z,60.55
2024-02-13T04:10:40.141Z,60.19
2024-02-13T04:15:44.634Z,59.91
2024-02-13T04:20:46.364Z,58.38
2024-02-13T04:25:47.948Z,59.72
2024-02-13T04:30:49.907Z,59.28
2024-02-13T04:35:51.631Z,58.77
2024-02-13T04:40:53.243Z,59.29
2024-02-13T04:45:54.776Z,58.94
2024-02-13T04:50:56.367Z,58.85
2024-02-13T04:55:58.140Z,57.89
2024-02-13T05:01:10.704Z,57.90
2024-02-13T05:06:30.911Z,59.02
2024-02-13T05:11:32.559Z,58.41
2024-02-13T05:16:35.166Z,58.30
2024-02-13T05:21:37.245Z,58.38
2024-02-13T05:26:39.953Z,58.62
2024-02-13T05:31:42.366Z,57.79
2024-02-13T05:36:44.868Z,58.00
2024-02-13T05:41:46.504Z,58.00
2024-02-13T05:46:48.238Z,57.04
2024-02-13T05:51:49.837Z,57.00
2024-02-13T05:56:51.710Z,57.59
2024-02-13T06:01:54.885Z,57.61
2024-02-13T06:06:56.834Z,58.07
2024-02-13T06:11:58.608Z,58.04
2024-02-13T06:17:00.398Z,58.37
2024-02-13T06:22:02.055Z,57.68
2024-02-13T06:27:03.760Z,56.92
2024-02-13T06:32:05.826Z,57.32
2024-02-13T06:37:07.398Z,57.71
2024-02-13T06:42:09.012Z,57.02
2024-02-13T06:47:13.348Z,57.54
2024-02-13T06:52:14.963Z,57.86
2024-02-13T06:57:16.494Z,58.10
2024-02-13T07:02:18.087Z,57.73
2024-02-13T07:07:29.588Z,57.18
2024-02-13T07:12:39.567Z,57.27
2024-02-13T07:17:52.451Z,57.34
2024-02-13T07:22:58.780Z,58.19
2024-02-13T07:28:00.396Z,58.23
2024-02-13T07:33:03.284Z,58.00
2024-02-13T07:38:05.670Z,58.63
2024-02-13T07:43:07.342Z,58.38
2024-02-13T07:48:12.365Z,58.13
2024-02-13T07:53:14.053Z,58.11
2024-02-13T07:58:15.664Z,57.95
2024-02-13T08:03:17.203Z,57.96
2024-02-13T08:08:19.162Z,57.90
2024-02-13T08:13:20.920Z,58.15
2024-02-13T08:18:22.636Z,58.70
2024-02-13T08:23:26.972Z,58.24
2024-02-13T08:28:28.570Z,57.93
2024-02-13T08:33:30.281Z,57.99
2024-02-13T08:38:31.943Z,58.58
2024-02-13T08:43:33.933Z,58.04
2024-02-13T08:48:35.650Z,58.40
2024-02-13T08:53:37.498Z,59.96
2024-02-13T08:58:39.026Z,59.21
2024-02-13T09:03:40.574Z,57.99
2024-02-13T09:08:43.567Z,60.08
2024-02-13T09:13:47.331Z,59.60
2024-02-13T09:18:49.101Z,59.54
2024-02-13T09:23:50.854Z,59.46
2024-02-13T09:28:52.773Z,58.58
2024-02-13T09:33:55.517Z,58.48
2024-02-13T09:38:59.317Z,58.77
2024-02-13T09:44:03.589Z,58.35
2024-02-13T09:49:06.727Z,61.07
2024-02-13T09:54:08.679Z,61.33
2024-02-13T09:59:12.898Z,62.38
2024-02-13T10:04:14.936Z,61.70
2024-02-13T10:09:16.488Z,62.21
2024-02-13T10:14:21.881Z,61.57
2024-02-13T10:19:23.760Z,61.54
2024-02-13T10:24:25.469Z,62.13
2024-02-13T10:29:27.084Z,62.66
2024-02-13T10:34:28.717Z,63.12
2024-02-13T10:39:30.599Z,62.66
2024-02-13T10:44:32.152Z,62.03
2024-02-13T10:49:44.442Z,62.30
2024-02-13T10:54:49.324Z,61.56
2024-02-13T10:59:50.866Z,62.16
2024-02-13T11:04:52.765Z,61.42
2024-02-13T11:09:54.534Z,61.41
2024-02-13T11:15:16.588Z,61.12
2024-02-13T11:20:25.388Z,61.21
2024-02-13T11:25:27.923Z,61.24
2024-02-13T11:30:29.663Z,60.73
2024-02-13T11:35:32.214Z,59.51
2024-02-13T11:40:34.524Z,59.26
2024-02-13T11:45:36.062Z,59.02
2024-02-13T11:50:37.785Z,59.56
2024-02-13T11:55:39.598Z,59.13
2024-02-13T12:00:45.743Z,59.85
2024-02-13T12:05:47.444Z,58.82
2024-02-13T12:10:49.918Z,58.83
2024-02-13T12:15:51.659Z,58.09
2024-02-13T12:20:53.687Z,58.30
2024-02-13T12:26:01.762Z,57.38
2024-02-13T12:31:03.725Z,57.81
2024-02-13T12:36:09.394Z,58.62
2024-02-13T12:41:11.106Z,57.50
2024-02-13T12:46:14.286Z,57.67
2024-02-13T12:51:16.870Z,57.75
2024-02-13T12:56:19.084Z,57.58
2024-02-13T13:01:25.084Z,57.52
2024-02-13T13:06:27.939Z,58.03
2024-02-13T13:11:29.883Z,59.71
2024-02-13T13:16:33.980Z,59.84
2024-02-13T13:21:36.177Z,60.11
2024-02-13T13:26:42.277Z,59.37
2024-02-13T13:31:45.351Z,59.91
2024-02-13T13:36:46.796Z,60.39
2024-02-13T13:41:50.870Z,60.11
2024-02-13T13:46:53.309Z,60.36
2024-02-13T13:51:54.816Z,59.89
2024-02-13T13:56:57.168Z,59.31
2024-02-13T14:01:58.801Z,58.77
2024-02-13T14:07:00.791Z,58.47
2024-02-13T14:12:06.616Z,58.53
2024-02-13T14:17:08.157Z,59.35
2024-02-13T14:22:13.249Z,61.20
2024-02-13T14:27:16.642Z,60.77
2024-02-13T14:32:19.778Z,59.86
2024-02-13T14:37:22.633Z,60.95
2024-02-13T14:42:24.188Z,59.83
2024-02-13T14:47:25.805Z,58.59
2024-02-13T14:52:27.381Z,59.00
2024-02-13T14:57:28.966Z,59.22
2024-02-13T15:02:34.694Z,58.04
2024-02-13T15:07:39.446Z,58.45
2024-02-13T15:12:41.449Z,58.58
2024-02-13T15:17:43.839Z,57.87
2024-02-13T15:22:45.560Z,57.87
2024-02-13T15:27:47.156Z,57.76
2024-02-13T15:32:49.125Z,57.29
2024-02-13T15:38:09.364Z,57.06
2024-02-13T15:43:29.252Z,56.62
2024-02-13T15:48:31.166Z,57.85
2024-02-13T15:53:38.243Z,58.06
2024-02-13T15:58:40.131Z,58.09
2024-02-13T16:03:44.342Z,58.02
2024-02-13T16:08:46.234Z,58.22
2024-02-13T16:13:48.896Z,57.86
2024-02-13T16:18:51.105Z,57.27
2024-02-13T16:23:54.655Z,57.49
2024-02-13T16:28:59.092Z,57.46
2024-02-13T16:34:01.654Z,57.84
2024-02-13T16:39:05.213Z,56.50
2024-02-13T16:44:06.824Z,56.95
2024-02-13T16:49:09.893Z,56.90
2024-02-13T16:54:11.911Z,57.30
2024-02-13T16:59:15.790Z,57.64
2024-02-13T17:04:17.616Z,56.76
2024-02-13T17:09:19.153Z,56.87
2024-02-13T17:14:20.764Z,56.64
2024-02-13T17:19:22.437Z,56.93
2024-02-13T17:24:24.705Z,56.54
2024-02-13T17:29:27.227Z,56.63
2024-02-13T17:34:29.231Z,57.32
2024-02-13T17:39:30.845Z,56.99
2024-02-13T17:44:32.513Z,57.77
2024-02-13T17:49:35.738Z,56.87
2024-02-13T17:54:37.372Z,56.76
2024-02-13T17:59:38.934Z,56.64
2024-02-13T18:04:40.485Z,56.63
2024-02-13T18:09:42.149Z,56.86
2024-02-13T18:14:43.731Z,55.74
2024-02-13T18:19:45.387Z,55.98
2024-02-13T18:24:49.818Z,56.50
2024-02-13T18:29:53.613Z,56.18
2024-02-13T18:34:55.257Z,55.85
2024-02-13T18:39:57.565Z,55.63
2024-02-13T18:44:59.132Z,55.87
2024-02-13T18:50:00.682Z,56.53
2024-02-13T18:55:09.883Z,56.24
2024-02-13T19:00:12.037Z,56.43
2024-02-13T19:05:13.734Z,56.14
2024-02-13T19:10:15.513Z,55.90
2024-02-13T19:15:17.930Z,55.46
2024-02-13T19:20:23.220Z,55.93
2024-02-13T19:25:26.866Z,55.95
2024-02-13T19:30:29.368Z,55.84
2024-02-13T19:35:33.209Z,55.58
2024-02-13T19:40:34.793Z,56.14
2024-02-13T19:45:37.771Z,56.33
2024-02-13T19:50:40.255Z,56.03
2024-02-13T19:55:41.983Z,56.68
2024-02-13T20:00:44.812Z,57.01
2024-02-13T20:05:46.464Z,57.60
2024-02-13T20:10:48.225Z,57.13
2024-02-13T20:15:51.093Z,56.98
2024-02-13T20:20:52.712Z,56.82
2024-02-13T20:25:54.250Z,56.59
2024-02-13T20:30:55.799Z,57.25
2024-02-13T20:36:01.075Z,57.36
2024-02-13T20:41:02.875Z,57.18
2024-02-13T20:46:12.256Z,57.50
2024-02-13T20:51:14.066Z,57.62
2024-02-13T20:56:18.466Z,57.50
2024-02-13T21:01:20.511Z,57.24
2024-02-13T21:06:24.927Z,56.30
2024-02-13T21:11:27.310Z,56.69
2024-02-13T21:16:31.017Z,56.87
2024-02-13T21:21:51.903Z,56.98
2024-02-13T21:26:53.567Z,57.03
2024-02-13T21:31:55.123Z,56.67
2024-02-13T21:36:56.679Z,56.97
2024-02-13T21:41:59.107Z,56.16
2024-02-13T21:47:00.927Z,56.26
2024-02-13T21:52:02.454Z,56.19
2024-02-13T21:57:07.473Z,56.09
2024-02-13T22:02:09.134Z,55.77
2024-02-13T22:07:10.678Z,55.85
2024-02-13T22:12:12.281Z,55.82
2024-02-13T22:17:13.841Z,55.45
2024-02-13T22:22:15.401Z,55.30
2024-02-13T22:27:17.258Z,55.48
2024-02-13T22:32:18.785Z,56.00
2024-02-13T22:37:21.333Z,56.10
2024-02-13T22:42:23.396Z,55.09
2024-02-13T22:47:25.037Z,55.36
2024-02-13T22:52:27.282Z,54.99
2024-02-13T22:57:29.103Z,55.57
2024-02-13T23:02:32.104Z,55.56
2024-02-13T23:07:33.999Z,55.47
2024-02-13T23:12:38.682Z,55.45
2024-02-13T23:17:40.280Z,55.44
2024-02-13T23:22:41.855Z,55.81
2024-02-13T23:27:43.521Z,55.00
2024-02-13T23:32:45.397Z,55.94
2024-02-13T23:37:47.157Z,55.38
2024-02-13T23:42:51.791Z,55.21
2024-02-13T23:47:53.763Z,55.27
2024-02-13T23:52:58.021Z,54.46
2024-02-13T23:58:00.074Z,54.72
